createdAt,value
2019-03-18T00:00:29.228Z,80.97
2019-03-18T00:01:29.204Z,80.76
2019-03-18T00:02:29.193Z,80.66
2019-03-18T00:03:29.181Z,80.97
2019-03-18T00:04:29.169Z,81.18
2019-03-18T00:05:29.235Z,81.28
2019-03-18T00:06:29.220Z,81.01
2019-03-18T00:07:29.136Z,80.87
2019-03-18T00:08:29.125Z,81.32
2019-03-18T00:09:29.113Z,81.01
2019-03-18T00:10:29.106Z,80.90
2019-03-18T00:11:29.104Z,81.32
2019-03-18T00:12:29.082Z,81.21
2019-03-18T00:13:29.072Z,81.21
2019-03-18T00:14:29.083Z,81.11
2019-03-18T00:15:29.048Z,81.01
2019-03-18T00:16:29.053Z,80.90
2019-03-18T00:17:29.025Z,81.42
2019-03-18T00:18:29.014Z,81.32
2019-03-18T00:19:29.006Z,81.32
2019-03-18T00:20:29.027Z,81.15
2019-03-18T00:21:28.992Z,81.42
2019-03-18T00:22:28.973Z,81.25
2019-03-18T00:23:28.959Z,81.52
2019-03-18T00:24:28.951Z,81.04
2019-03-18T00:25:28.939Z,82.08
2019-03-18T00:26:28.936Z,82.08
2019-03-18T00:27:28.916Z,81.87
2019-03-18T00:28:28.920Z,82.18
2019-03-18T00:29:28.893Z,81.94
2019-03-18T00:30:28.882Z,82.18
2019-03-18T00:31:28.881Z,81.98
2019-03-18T00:32:28.859Z,82.46
2019-03-18T00:33:28.851Z,82.08
2019-03-18T00:34:28.836Z,82.08
2019-03-18T00:35:28.831Z,82.81
2019-03-18T00:36:28.828Z,83.39
2019-03-18T00:37:28.810Z,82.56
2019-03-18T00:38:28.793Z,82.67
2019-03-18T00:39:28.784Z,82.81
2019-03-18T00:40:28.773Z,82.67
2019-03-18T00:41:28.770Z,82.81
2019-03-18T00:42:28.751Z,82.56
2019-03-18T00:43:28.739Z,82.15
2019-03-18T00:44:28.730Z,82.15
2019-03-18T00:45:28.724Z,82.77
2019-03-18T00:46:28.713Z,82.15
2019-03-18T00:47:28.694Z,82.11
2019-03-18T00:48:28.681Z,82.46
2019-03-18T00:49:28.674Z,81.80
2019-03-18T00:50:28.672Z,81.80
2019-03-18T00:51:28.659Z,82.11
2019-03-18T00:52:28.645Z,81.59
2019-03-18T00:53:28.638Z,81.80
2019-03-18T00:54:28.632Z,81.80
2019-03-18T00:55:28.620Z,81.49
2019-03-18T00:56:28.604Z,82.01
2019-03-18T00:57:28.581Z,82.11
2019-03-18T00:58:28.572Z,82.21
2019-03-18T00:59:28.562Z,82.01
2019-03-18T01:00:28.548Z,82.42
2019-03-18T01:01:28.549Z,82.21
2019-03-18T01:02:28.528Z,81.80
2019-03-18T01:03:28.517Z,81.80
2019-03-18T01:04:28.504Z,81.90
2019-03-18T01:05:28.493Z,81.90
2019-03-18T01:06:28.491Z,81.18
2019-03-18T01:07:28.472Z,81.28
2019-03-18T01:08:28.464Z,82.01
2019-03-18T01:09:28.451Z,81.59
2019-03-18T01:10:28.441Z,81.18
2019-03-18T01:11:28.435Z,81.70
2019-03-18T01:12:28.461Z,81.90
2019-03-18T01:13:28.407Z,81.80
2019-03-18T01:14:28.407Z,82.35
2019-03-18T01:15:28.826Z,81.73
2019-03-18T01:16:28.458Z,82.32
2019-03-18T01:17:28.367Z,82.15
2019-03-18T01:18:28.365Z,81.59
2019-03-18T01:19:28.351Z,81.94
2019-03-18T01:20:28.392Z,82.56
2019-03-18T01:21:28.326Z,82.35
2019-03-18T01:22:28.354Z,81.94
2019-03-18T01:23:28.308Z,82.25
2019-03-18T01:24:28.286Z,82.29
2019-03-18T01:25:28.276Z,82.56
2019-03-18T01:26:28.278Z,82.60
2019-03-18T01:27:28.272Z,82.81
2019-03-18T01:28:28.240Z,82.50
2019-03-18T01:29:28.227Z,82.87
2019-03-18T01:30:28.215Z,83.22
2019-03-18T01:31:28.231Z,83.43
2019-03-18T01:32:28.205Z,83.01
2019-03-18T01:33:28.185Z,83.29
2019-03-18T01:34:28.183Z,83.18
2019-03-18T01:35:28.191Z,82.67
2019-03-18T01:36:28.212Z,82.98
2019-03-18T01:37:28.177Z,82.87
2019-03-18T01:38:28.132Z,83.01
2019-03-18T01:39:28.119Z,82.87
2019-03-18T01:40:28.107Z,82.98
2019-03-18T01:41:28.096Z,82.98
2019-03-18T01:42:28.098Z,83.18
2019-03-18T01:43:28.132Z,82.98
2019-03-18T01:44:28.066Z,82.98
2019-03-18T01:45:40.181Z,83.12
2019-03-18T01:46:29.104Z,83.08
2019-03-18T01:47:28.045Z,82.91
2019-03-18T01:48:28.024Z,82.98
2019-03-18T01:49:28.030Z,82.87
2019-03-18T01:50:27.999Z,82.98
2019-03-18T01:51:27.988Z,82.98
2019-03-18T01:52:27.983Z,83.01
2019-03-18T01:53:27.973Z,82.98
2019-03-18T01:54:27.953Z,82.98
2019-03-18T01:55:27.944Z,82.98
2019-03-18T01:56:27.934Z,82.87
2019-03-18T01:57:27.926Z,83.08
2019-03-18T01:58:27.911Z,83.50
2019-03-18T01:59:27.902Z,83.18
2019-03-18T02:00:27.885Z,83.01
2019-03-18T02:01:27.883Z,83.01
2019-03-18T02:02:27.883Z,82.98
2019-03-18T02:03:27.869Z,83.08
2019-03-18T02:04:27.842Z,83.29
2019-03-18T02:05:27.832Z,83.33
2019-03-18T02:06:27.819Z,82.77
2019-03-18T02:07:27.815Z,83.12
2019-03-18T02:08:27.800Z,83.22
2019-03-18T02:09:27.803Z,83.18
2019-03-18T02:10:27.789Z,83.29
2019-03-18T02:11:27.763Z,83.01
2019-03-18T02:12:27.762Z,82.81
2019-03-18T02:13:27.738Z,82.98
2019-03-18T02:14:27.732Z,82.91
2019-03-18T02:15:27.718Z,82.87
2019-03-18T02:16:27.707Z,82.98
2019-03-18T02:17:27.766Z,83.43
2019-03-18T02:18:27.686Z,82.67
2019-03-18T02:19:27.675Z,82.15
2019-03-18T02:20:27.663Z,82.18
2019-03-18T02:21:27.684Z,82.04
2019-03-18T02:22:27.650Z,82.50
2019-03-18T02:23:27.638Z,82.87
2019-03-18T02:24:27.634Z,82.50
2019-03-18T02:25:27.629Z,82.56
2019-03-18T02:26:27.625Z,82.50
2019-03-18T02:27:27.612Z,82.60
2019-03-18T02:28:27.583Z,82.08
2019-03-18T02:29:27.566Z,82.04
2019-03-18T02:30:27.561Z,82.15
2019-03-18T02:31:27.538Z,82.08
2019-03-18T02:32:27.555Z,82.35
2019-03-18T02:33:27.515Z,81.84
2019-03-18T02:34:27.511Z,82.25
2019-03-18T02:35:27.495Z,81.87
2019-03-18T02:36:27.484Z,81.98
2019-03-18T02:37:27.481Z,81.94
2019-03-18T02:38:27.467Z,82.25
2019-03-18T02:39:27.458Z,82.46
2019-03-18T02:40:27.440Z,82.56
2019-03-18T02:41:27.439Z,81.73
2019-03-18T02:42:27.430Z,81.94
2019-03-18T02:43:27.406Z,81.84
2019-03-18T02:44:27.392Z,82.18
2019-03-18T02:45:27.385Z,81.98
2019-03-18T02:46:27.374Z,81.94
2019-03-18T02:47:27.375Z,81.63
2019-03-18T02:48:27.362Z,81.94
2019-03-18T02:49:27.339Z,82.04
2019-03-18T02:50:27.328Z,82.15
2019-03-18T02:51:27.319Z,81.63
2019-03-18T02:52:27.306Z,81.94
2019-03-18T02:53:27.311Z,81.94
2019-03-18T02:54:27.294Z,82.04
2019-03-18T02:55:27.274Z,81.77
2019-03-18T02:56:27.272Z,81.98
2019-03-18T02:57:27.250Z,81.84
2019-03-18T02:58:27.252Z,81.84
2019-03-18T02:59:27.229Z,81.21
2019-03-18T03:00:27.220Z,81.21
2019-03-18T03:01:27.206Z,82.15
2019-03-18T03:02:27.203Z,81.77
2019-03-18T03:03:27.198Z,81.63
2019-03-18T03:04:27.178Z,81.77
2019-03-18T03:05:27.174Z,82.08
2019-03-18T03:06:27.150Z,81.87
2019-03-18T03:07:27.143Z,81.46
2019-03-18T03:08:27.149Z,81.98
2019-03-18T03:09:27.117Z,82.08
2019-03-18T03:10:27.104Z,81.87
2019-03-18T03:11:27.095Z,82.50
2019-03-18T03:12:27.083Z,82.39
2019-03-18T03:13:27.082Z,82.18
2019-03-18T03:14:27.061Z,82.81
2019-03-18T03:15:27.049Z,82.91
2019-03-18T03:16:27.772Z,81.98
2019-03-18T03:17:27.026Z,82.50
2019-03-18T03:18:27.026Z,82.15
2019-03-18T03:19:27.004Z,81.98
2019-03-18T03:20:26.998Z,82.25
2019-03-18T03:21:26.983Z,81.98
2019-03-18T03:22:26.976Z,82.08
2019-03-18T03:23:26.977Z,81.52
2019-03-18T03:24:26.951Z,81.98
2019-03-18T03:25:26.942Z,81.87
2019-03-18T03:26:26.937Z,81.94
2019-03-18T03:27:26.922Z,81.67
2019-03-18T03:28:26.913Z,82.04
2019-03-18T03:29:26.894Z,82.04
2019-03-18T03:30:26.885Z,81.73
2019-03-18T03:31:26.881Z,81.73
2019-03-18T03:32:26.883Z,81.11
2019-03-18T03:33:26.860Z,82.04
2019-03-18T03:34:26.839Z,81.94
2019-03-18T03:35:26.840Z,81.42
2019-03-18T03:36:26.814Z,82.04
2019-03-18T03:37:26.806Z,81.63
2019-03-18T03:38:26.803Z,81.42
2019-03-18T03:39:26.784Z,81.63
2019-03-18T03:40:26.773Z,82.39
2019-03-18T03:41:26.764Z,82.39
2019-03-18T03:42:26.751Z,82.35
2019-03-18T03:43:26.749Z,82.29
2019-03-18T03:44:26.729Z,82.35
2019-03-18T03:45:26.731Z,82.25
2019-03-18T03:46:41.884Z,82.08
2019-03-18T03:47:27.693Z,82.35
2019-03-18T03:48:26.692Z,82.25
2019-03-18T03:49:26.672Z,81.94
2019-03-18T03:50:26.663Z,81.98
2019-03-18T03:51:26.649Z,82.70
2019-03-18T03:52:26.641Z,82.67
2019-03-18T03:53:30.632Z,82.91
2019-03-18T03:54:26.619Z,82.18
2019-03-18T03:55:26.604Z,82.67
2019-03-18T03:56:26.594Z,82.70
2019-03-18T03:57:26.583Z,82.60
2019-03-18T03:58:26.584Z,82.77
2019-03-18T03:59:26.565Z,82.60
2019-03-18T04:00:26.566Z,83.22
2019-03-18T04:01:29.509Z,83.22
2019-03-18T04:02:26.531Z,83.12
2019-03-18T04:03:38.338Z,83.12
2019-03-18T04:04:27.506Z,82.81
2019-03-18T04:05:26.494Z,83.64
2019-03-18T04:06:26.497Z,83.39
2019-03-18T04:07:26.472Z,83.39
2019-03-18T04:08:26.473Z,83.39
2019-03-18T04:09:26.471Z,83.60
2019-03-18T04:10:26.439Z,83.08
2019-03-18T04:11:26.444Z,82.87
2019-03-18T04:12:26.427Z,83.08
2019-03-18T04:13:26.412Z,82.98
2019-03-18T04:14:26.424Z,82.94
2019-03-18T04:15:26.382Z,82.98
2019-03-18T04:16:26.372Z,83.04
2019-03-18T04:17:26.361Z,82.84
2019-03-18T04:18:26.355Z,82.53
2019-03-18T04:19:26.349Z,82.01
2019-03-18T04:20:26.327Z,82.01
2019-03-18T04:21:26.315Z,82.11
2019-03-18T04:22:26.306Z,81.80
2019-03-18T04:23:26.297Z,81.97
2019-03-18T04:24:26.296Z,82.59
2019-03-18T04:25:26.274Z,82.70
2019-03-18T04:26:26.260Z,81.97
2019-03-18T04:27:26.249Z,81.97
2019-03-18T04:28:26.241Z,81.97
2019-03-18T04:29:26.244Z,82.49
2019-03-18T04:30:26.233Z,82.59
2019-03-18T04:31:26.220Z,81.93
2019-03-18T04:32:26.195Z,82.07
2019-03-18T04:33:26.184Z,82.34
2019-03-18T04:34:26.184Z,81.51
2019-03-18T04:35:26.159Z,81.72
2019-03-18T04:36:26.151Z,81.51
2019-03-18T04:37:26.137Z,81.30
2019-03-18T04:38:26.130Z,81.20
2019-03-18T04:39:26.129Z,81.72
2019-03-18T04:40:26.106Z,81.10
2019-03-18T04:41:26.097Z,81.10
2019-03-18T04:42:26.084Z,81.72
2019-03-18T04:43:26.090Z,82.03
2019-03-18T04:44:26.070Z,82.24
2019-03-18T04:45:26.068Z,82.03
2019-03-18T04:46:26.040Z,82.14
2019-03-18T04:47:26.026Z,81.93
2019-03-18T04:48:26.015Z,81.93
2019-03-18T04:49:26.019Z,81.41
2019-03-18T04:50:25.999Z,81.20
2019-03-18T04:51:25.984Z,82.14
2019-03-18T04:52:25.971Z,82.45
2019-03-18T04:53:25.961Z,82.34
2019-03-18T04:54:25.962Z,82.65
2019-03-18T04:55:25.941Z,82.45
2019-03-18T09:42:38.697Z,55.97
2019-03-18T09:43:38.675Z,54.05
2019-03-18T09:44:38.664Z,53.78
2019-03-18T09:45:38.654Z,54.00
2019-03-18T09:46:38.643Z,50.84
2019-03-18T09:47:38.642Z,47.30
2019-03-18T09:48:38.624Z,44.60
2019-03-18T09:49:38.608Z,43.73
2019-03-18T09:50:38.599Z,42.70
2019-03-18T09:51:38.589Z,41.79
2019-03-18T09:52:38.583Z,43.34
2019-03-18T09:53:38.565Z,42.25
2019-03-18T09:54:38.556Z,40.06
2019-03-18T09:55:38.542Z,40.69
2019-03-18T09:56:38.531Z,40.94
2019-03-18T09:57:38.530Z,43.08
2019-03-18T09:58:38.508Z,43.18
2019-03-18T09:59:38.497Z,42.05
2019-03-18T10:00:38.490Z,43.26
2019-03-18T10:01:38.476Z,43.71
2019-03-18T10:02:38.472Z,44.58
2019-03-18T10:03:38.455Z,45.91
2019-03-18T10:04:38.442Z,46.26
2019-03-18T10:05:38.432Z,46.18
2019-03-18T10:06:38.419Z,46.63
2019-03-18T10:07:38.417Z,46.55
2019-03-18T10:08:38.397Z,46.69
2019-03-18T10:09:38.388Z,45.96
2019-03-18T10:10:38.375Z,44.74
2019-03-18T10:11:38.364Z,41.71
2019-03-18T10:12:38.368Z,40.60
2019-03-18T10:13:38.341Z,40.04
2019-03-18T10:14:38.338Z,38.68
2019-03-18T10:15:38.322Z,36.82
2019-03-18T10:16:38.309Z,35.58
2019-03-18T10:17:38.297Z,35.28
2019-03-18T10:18:38.296Z,35.76
2019-03-18T10:19:38.278Z,34.33
2019-03-18T10:20:38.267Z,34.73
2019-03-18T10:21:38.252Z,34.93
2019-03-18T10:22:38.240Z,34.12
2019-03-18T10:23:38.238Z,33.62
2019-03-18T10:24:38.219Z,34.03
2019-03-18T10:25:38.209Z,35.73
2019-03-18T10:26:38.197Z,33.73
2019-03-18T10:27:38.251Z,34.17
2019-03-18T10:28:38.199Z,36.05
2019-03-18T10:29:38.162Z,37.30
2019-03-18T10:30:38.156Z,38.17
2019-03-18T10:31:38.142Z,39.01
2019-03-18T10:32:38.129Z,39.31
2019-03-18T10:33:38.128Z,40.32
2019-03-18T10:34:38.109Z,38.91
2019-03-18T10:35:38.103Z,39.81
2019-03-18T10:36:38.086Z,39.03
2019-03-18T10:37:38.075Z,39.94
2019-03-18T10:38:38.078Z,40.46
2019-03-18T10:39:38.053Z,40.05
2019-03-18T10:40:38.041Z,40.96
2019-03-18T10:41:38.031Z,41.05
2019-03-18T10:42:38.020Z,40.36
2019-03-18T10:43:38.025Z,41.27
2019-03-18T10:44:38.003Z,41.56
2019-03-18T10:45:37.990Z,41.77
2019-03-18T10:46:37.979Z,40.64
2019-03-18T10:47:37.965Z,40.74
2019-03-18T10:48:37.965Z,40.94
2019-03-18T10:49:46.171Z,41.49
2019-03-18T10:50:38.940Z,41.41
2019-03-18T10:51:37.923Z,42.41
2019-03-18T10:52:37.912Z,42.15
2019-03-18T10:53:37.912Z,42.17
2019-03-18T10:54:37.889Z,42.29
2019-03-18T10:55:37.889Z,41.72
2019-03-18T10:56:37.867Z,41.60
2019-03-18T10:57:37.856Z,41.78
2019-03-18T10:58:37.856Z,41.78
2019-03-18T10:59:37.834Z,42.07
2019-03-18T11:00:37.822Z,41.87
2019-03-18T11:01:37.810Z,42.86
2019-03-18T11:02:37.800Z,42.15
2019-03-18T11:03:38.977Z,42.96
2019-03-18T11:04:37.779Z,41.83
2019-03-18T11:05:37.768Z,41.22
2019-03-18T11:06:37.758Z,42.23
2019-03-18T11:07:37.745Z,42.03
2019-03-18T11:08:37.744Z,41.63
2019-03-18T11:09:37.725Z,41.71
2019-03-18T11:10:37.712Z,42.19
2019-03-18T11:11:37.717Z,41.08
2019-03-18T11:12:37.689Z,41.16
2019-03-18T11:13:37.685Z,39.85
2019-03-18T11:14:37.667Z,39.83
2019-03-18T11:15:37.659Z,39.81
2019-03-18T11:16:37.645Z,38.91
2019-03-18T11:17:37.635Z,38.40
2019-03-18T11:18:37.632Z,38.42
2019-03-18T11:19:37.613Z,38.81
2019-03-18T11:20:37.601Z,39.94
2019-03-18T11:21:37.591Z,39.65
2019-03-18T11:22:37.580Z,40.28
2019-03-18T11:23:37.578Z,39.94
2019-03-18T11:24:37.556Z,40.64
2019-03-18T11:25:37.546Z,40.01
2019-03-18T11:26:37.533Z,38.81
2019-03-18T11:27:37.523Z,39.01
2019-03-18T11:28:37.522Z,38.69
2019-03-18T11:29:37.500Z,38.73
2019-03-18T11:30:37.491Z,38.52
2019-03-18T11:31:37.479Z,39.95
2019-03-18T11:32:37.472Z,39.37
2019-03-18T11:33:37.477Z,40.88
2019-03-18T11:34:37.447Z,40.70
2019-03-18T11:35:37.439Z,40.61
2019-03-18T11:36:37.424Z,39.64
2019-03-18T11:37:37.412Z,40.67
2019-03-18T11:38:37.407Z,41.42
2019-03-18T11:39:37.400Z,41.26
2019-03-18T11:40:37.380Z,41.28
2019-03-18T11:41:38.524Z,43.43
2019-03-18T11:42:37.356Z,43.57
2019-03-18T11:43:37.344Z,44.71
2019-03-18T11:44:37.342Z,45.14
2019-03-18T11:45:37.324Z,46.07
2019-03-18T11:46:40.237Z,46.60
2019-03-18T11:47:37.300Z,46.81
2019-03-18T11:48:37.290Z,47.56
2019-03-18T11:49:39.851Z,49.11
2019-03-18T11:50:37.268Z,50.77
2019-03-18T11:51:37.260Z,51.12
2019-03-18T11:52:37.245Z,51.55
2019-03-18T11:53:37.233Z,53.11
2019-03-18T11:54:37.251Z,54.57
2019-03-18T11:55:37.213Z,55.10
2019-03-18T11:56:37.199Z,56.66
2019-03-18T11:57:37.190Z,57.17
2019-03-18T11:58:37.176Z,57.58
2019-03-18T11:59:37.178Z,57.07
2019-03-18T12:00:37.154Z,58.50
2019-03-18T12:01:37.144Z,58.29
2019-03-18T12:02:37.132Z,58.09
2019-03-18T12:03:37.120Z,57.79
2019-03-18T12:04:37.117Z,58.53
2019-03-18T12:05:37.099Z,58.43
2019-03-18T12:06:37.088Z,58.53
2019-03-18T12:07:37.077Z,58.40
2019-03-18T12:08:37.065Z,58.12
2019-03-18T12:09:37.063Z,58.33
2019-03-18T12:10:37.042Z,57.20
2019-03-18T12:11:37.032Z,56.56
2019-03-18T12:12:37.022Z,56.53
2019-03-18T12:13:37.009Z,56.17
2019-03-18T12:14:37.009Z,55.30
2019-03-18T12:15:36.986Z,54.90
2019-03-18T12:16:36.977Z,53.36
2019-03-18T12:17:36.965Z,53.39
2019-03-18T12:18:36.953Z,53.29
2019-03-18T12:19:36.957Z,53.39
2019-03-18T12:20:36.933Z,53.70
2019-03-18T12:21:36.922Z,52.78
2019-03-18T12:22:36.908Z,53.80
2019-03-18T12:23:36.900Z,52.47
2019-03-18T12:24:36.898Z,52.37
2019-03-18T12:25:36.883Z,53.67
2019-03-18T12:26:36.864Z,53.29
2019-03-18T12:27:36.855Z,53.36
2019-03-18T12:28:36.841Z,52.75
2019-03-18T12:29:36.840Z,51.53
2019-03-18T12:30:36.820Z,51.73
2019-03-18T12:31:36.810Z,51.15
2019-03-18T12:32:36.816Z,51.15
2019-03-18T12:33:36.787Z,50.44
2019-03-18T12:34:36.786Z,46.76
2019-03-18T12:35:36.764Z,45.25
2019-03-18T12:36:36.758Z,44.62
2019-03-18T12:37:36.742Z,42.98
2019-03-18T12:38:36.731Z,41.16
2019-03-18T12:39:36.729Z,40.98
2019-03-18T12:40:36.710Z,39.93
2019-03-18T12:41:36.699Z,38.86
2019-03-18T12:42:36.690Z,37.49
2019-03-18T12:43:36.677Z,35.86
2019-03-18T12:44:36.676Z,34.32
2019-03-18T12:45:36.657Z,34.32
2019-03-18T12:46:36.642Z,33.79
2019-03-18T12:47:36.633Z,31.86
2019-03-18T12:48:36.621Z,31.86
2019-03-18T12:49:36.617Z,31.74
2019-03-18T12:50:53.933Z,30.84
2019-03-18T12:51:37.586Z,30.54
2019-03-18T12:52:36.578Z,31.34
2019-03-18T12:53:36.565Z,30.85
2019-03-18T12:54:36.575Z,29.95
2019-03-18T12:55:36.542Z,31.16
2019-03-18T12:56:36.532Z,30.57
2019-03-18T12:57:36.521Z,32.18
2019-03-18T12:58:36.509Z,31.79
2019-03-18T12:59:36.501Z,31.99
2019-03-18T13:00:36.496Z,32.61
2019-03-18T13:01:36.478Z,31.72
2019-03-18T13:02:36.469Z,33.03
2019-03-18T13:03:36.455Z,34.04
2019-03-18T13:04:36.447Z,33.64
2019-03-18T13:05:36.442Z,33.33
2019-03-18T13:06:36.425Z,33.13
2019-03-18T13:07:36.414Z,33.23
2019-03-18T13:08:36.404Z,33.64
2019-03-18T13:09:36.389Z,32.71
2019-03-18T13:10:36.387Z,33.36
2019-03-18T13:11:36.369Z,33.06
2019-03-18T13:12:36.360Z,33.78
2019-03-18T13:13:36.347Z,33.90
2019-03-18T13:14:36.334Z,34.13
2019-03-18T13:15:36.332Z,34.66
2019-03-18T13:16:36.317Z,35.28
2019-03-18T13:17:36.301Z,34.77
2019-03-18T13:18:36.290Z,35.58
2019-03-18T13:19:36.294Z,35.88
2019-03-18T13:20:36.278Z,35.82
2019-03-18T13:21:36.258Z,35.92
2019-03-18T13:22:36.247Z,36.43
2019-03-18T13:23:36.237Z,38.16
2019-03-18T13:24:36.223Z,37.67
2019-03-18T13:25:36.225Z,37.99
2019-03-18T13:26:36.202Z,37.61
2019-03-18T13:27:36.190Z,38.23
2019-03-18T13:28:36.178Z,38.93
2019-03-18T13:29:36.167Z,38.60
2019-03-18T13:30:36.165Z,39.01
2019-03-18T13:31:36.145Z,38.81
2019-03-18T13:32:36.135Z,38.59
2019-03-18T13:33:36.125Z,37.77
2019-03-18T13:34:36.112Z,38.10
2019-03-18T13:35:36.111Z,38.42
2019-03-18T13:36:36.092Z,38.95
2019-03-18T13:37:36.080Z,39.06
2019-03-18T13:38:36.066Z,38.76
2019-03-18T13:39:36.056Z,38.68
2019-03-18T13:40:36.056Z,38.78
2019-03-18T13:41:36.036Z,39.20
2019-03-18T13:42:36.022Z,40.44
2019-03-18T13:43:36.011Z,40.25
2019-03-18T13:44:36.002Z,40.68
2019-03-18T13:45:36.000Z,40.70
2019-03-18T13:46:35.997Z,40.82
2019-03-18T13:47:35.967Z,41.55
2019-03-18T13:48:35.955Z,42.47
2019-03-18T13:49:35.947Z,43.71
2019-03-18T13:50:36.165Z,44.32
2019-03-18T13:51:35.922Z,45.06
2019-03-18T13:52:35.911Z,47.42
2019-03-18T13:53:35.901Z,49.30
2019-03-18T13:54:35.890Z,51.68
2019-03-18T13:55:35.887Z,53.92
2019-03-18T13:56:35.868Z,56.12
2019-03-18T13:57:35.854Z,56.87
2019-03-18T13:58:35.846Z,58.53
2019-03-18T13:59:35.833Z,58.86
2019-03-18T14:00:35.844Z,60.53
2019-03-18T14:01:35.812Z,60.42
2019-03-18T14:02:35.803Z,60.35
2019-03-18T14:03:35.789Z,62.02
2019-03-18T14:04:35.776Z,62.36
2019-03-18T14:05:35.773Z,62.77
2019-03-18T14:06:35.755Z,63.31
2019-03-18T14:07:35.743Z,64.16
2019-03-18T14:08:35.734Z,64.60
2019-03-18T14:09:35.725Z,64.09
2019-03-18T14:10:35.720Z,64.63
2019-03-18T14:11:35.698Z,65.05
2019-03-18T14:12:37.119Z,65.97
2019-03-18T14:13:35.676Z,65.59
2019-03-18T14:14:35.665Z,67.13
2019-03-18T14:15:35.663Z,67.03
2019-03-18T14:16:35.644Z,66.38
2019-03-18T14:17:35.631Z,66.89
2019-03-18T14:18:35.620Z,65.66
2019-03-18T14:19:35.611Z,66.28
2019-03-18T14:20:36.059Z,66.48
2019-03-18T14:21:35.589Z,67.13
2019-03-18T14:22:35.575Z,66.28
2019-03-18T14:23:35.567Z,67.13
2019-03-18T14:24:35.554Z,66.00
2019-03-18T14:25:35.564Z,65.97
2019-03-18T14:26:35.531Z,66.28
2019-03-18T14:27:35.536Z,66.48
2019-03-18T14:28:35.510Z,65.14
2019-03-18T14:29:35.498Z,65.35
2019-03-18T14:30:35.488Z,65.22
2019-03-18T14:31:35.483Z,66.55
2019-03-18T14:32:35.465Z,65.60
2019-03-18T14:33:35.470Z,64.60
2019-03-18T14:34:35.443Z,64.78
2019-03-18T14:35:35.430Z,64.47
2019-03-18T14:36:35.434Z,64.78
2019-03-18T14:37:35.411Z,63.62
2019-03-18T14:38:38.255Z,63.49
2019-03-18T14:39:35.394Z,64.51
2019-03-18T14:40:35.374Z,64.61
2019-03-18T14:41:35.372Z,64.10
2019-03-18T14:42:35.353Z,63.59
2019-03-18T14:43:35.344Z,63.39
2019-03-18T14:44:35.334Z,62.74
2019-03-18T14:45:35.320Z,62.63
2019-03-18T14:46:35.317Z,62.71
2019-03-18T14:47:35.300Z,62.61
2019-03-18T14:48:35.286Z,60.53
2019-03-18T14:49:35.274Z,61.09
2019-03-18T14:50:35.263Z,58.63
2019-03-18T14:51:45.433Z,59.01
2019-03-18T14:52:36.241Z,58.25
2019-03-18T14:53:35.232Z,58.11
2019-03-18T14:54:35.225Z,58.06
2019-03-18T14:55:35.211Z,56.81
2019-03-18T14:56:35.207Z,54.85
2019-03-18T14:57:35.188Z,55.10
2019-03-18T14:58:35.175Z,52.66
2019-03-18T14:59:35.163Z,53.39
2019-03-18T15:00:35.153Z,53.47
2019-03-18T15:01:35.152Z,51.46
2019-03-18T15:02:35.130Z,51.46
2019-03-18T15:03:35.121Z,51.86
2019-03-18T15:04:35.109Z,52.60
2019-03-18T15:05:36.975Z,52.81
2019-03-18T15:06:35.095Z,52.29
2019-03-18T15:07:35.075Z,52.20
2019-03-18T15:08:35.063Z,52.81
2019-03-18T15:09:35.053Z,53.62
2019-03-18T15:10:35.041Z,53.31
2019-03-18T15:11:35.037Z,52.81
2019-03-18T15:12:35.017Z,53.11
2019-03-18T15:13:35.007Z,53.31
2019-03-18T15:14:34.994Z,53.03
2019-03-18T15:15:34.985Z,52.86
2019-03-18T15:16:34.988Z,53.08
2019-03-18T15:17:34.962Z,53.01
2019-03-18T15:18:34.951Z,53.83
2019-03-18T15:19:34.941Z,51.60
2019-03-18T15:20:34.929Z,52.34
2019-03-18T15:21:34.927Z,53.19
2019-03-18T15:22:34.907Z,53.90
2019-03-18T15:23:34.898Z,53.92
2019-03-18T15:24:34.886Z,54.46
2019-03-18T15:25:34.881Z,54.57
2019-03-18T15:26:34.937Z,54.90
2019-03-18T15:27:34.850Z,55.62
2019-03-18T15:28:34.839Z,57.05
2019-03-18T15:29:34.828Z,56.77
2019-03-18T15:30:34.820Z,56.87
2019-03-18T15:31:34.816Z,56.77
2019-03-18T15:32:34.795Z,57.18
2019-03-18T15:33:34.783Z,57.31
2019-03-18T15:34:34.772Z,56.79
2019-03-18T15:35:34.761Z,56.97
2019-03-18T15:36:34.763Z,57.92
2019-03-18T15:37:34.739Z,58.74
2019-03-18T15:38:34.726Z,58.12
2019-03-18T15:39:34.717Z,58.03
2019-03-18T15:40:34.708Z,58.46
2019-03-18T15:41:34.701Z,58.12
2019-03-18T15:42:34.694Z,58.26
2019-03-18T15:43:34.671Z,59.08
2019-03-18T15:44:34.687Z,58.46
2019-03-18T15:45:34.649Z,58.05
2019-03-18T15:46:34.640Z,56.92
2019-03-18T15:47:34.636Z,57.84
2019-03-18T15:48:34.631Z,58.15
2019-03-18T15:49:34.605Z,58.77
2019-03-18T15:50:34.593Z,58.56
2019-03-18T15:51:34.585Z,59.18
2019-03-18T15:52:34.580Z,59.18
2019-03-18T15:53:34.563Z,59.28
2019-03-18T15:54:34.549Z,59.18
2019-03-18T15:55:34.541Z,59.05
2019-03-18T15:56:34.525Z,58.51
2019-03-18T15:57:34.524Z,58.64
2019-03-18T15:58:34.519Z,57.89
2019-03-18T15:59:34.526Z,56.87
2019-03-18T16:00:34.481Z,56.77
2019-03-18T16:01:34.470Z,57.18
2019-03-18T16:02:34.470Z,56.77
2019-03-18T16:03:34.450Z,58.20
2019-03-18T16:04:34.442Z,58.81
2019-03-18T16:05:34.426Z,58.51
2019-03-18T16:06:34.415Z,58.61
2019-03-18T16:07:34.412Z,58.81
2019-03-18T16:08:34.394Z,58.72
2019-03-18T16:09:34.382Z,57.97
2019-03-18T16:10:34.370Z,58.81
2019-03-18T16:11:34.359Z,58.17
2019-03-18T16:12:34.357Z,57.79
2019-03-18T16:13:34.338Z,57.28
2019-03-18T16:14:34.327Z,58.48
2019-03-18T16:15:34.316Z,58.89
2019-03-18T16:16:34.307Z,58.58
2019-03-18T16:17:34.303Z,57.38
2019-03-18T16:18:34.282Z,56.64
2019-03-18T16:19:34.272Z,56.97
2019-03-18T16:20:34.262Z,57.76
2019-03-18T16:21:34.251Z,58.00
2019-03-18T16:22:34.253Z,57.07
2019-03-18T16:23:34.225Z,57.07
2019-03-18T16:24:34.214Z,58.10
2019-03-18T16:25:34.202Z,58.40
2019-03-18T16:26:34.193Z,58.40
2019-03-18T16:27:34.195Z,56.26
2019-03-18T16:28:34.170Z,54.61
2019-03-18T16:29:34.160Z,55.33
2019-03-18T16:30:34.147Z,53.90
2019-03-18T16:31:34.135Z,54.41
2019-03-18T16:32:34.145Z,55.13
2019-03-18T16:33:34.122Z,56.05
2019-03-18T16:34:34.197Z,56.97
2019-03-18T16:35:34.094Z,58.30
2019-03-18T16:36:34.088Z,55.94
2019-03-18T16:37:34.078Z,54.74
2019-03-18T16:38:34.061Z,54.00
2019-03-18T16:39:34.049Z,54.13
2019-03-18T16:40:34.036Z,53.80
2019-03-18T16:41:34.029Z,53.00
2019-03-18T16:42:34.022Z,53.92
2019-03-18T16:43:34.002Z,53.92
2019-03-18T16:44:33.991Z,54.13
2019-03-18T16:45:33.981Z,53.92
2019-03-18T16:46:33.973Z,53.51
2019-03-18T16:47:33.975Z,53.54
2019-03-18T16:48:33.947Z,53.51
2019-03-18T16:49:33.938Z,53.51
2019-03-18T16:50:33.925Z,53.51
2019-03-18T16:51:33.914Z,53.95
2019-03-18T16:52:36.053Z,53.64
2019-03-18T16:53:33.893Z,53.95
2019-03-18T16:54:33.879Z,54.05
2019-03-18T16:55:33.873Z,54.08
2019-03-18T16:56:33.859Z,53.85
2019-03-18T16:57:33.845Z,54.15
2019-03-18T16:58:33.842Z,54.08
2019-03-18T16:59:33.824Z,54.59
2019-03-18T17:00:33.813Z,54.18
2019-03-18T17:01:33.802Z,54.18
2019-03-18T17:02:33.792Z,54.59
2019-03-18T17:03:33.789Z,54.38
2019-03-18T17:04:33.767Z,53.56
2019-03-18T17:05:33.759Z,54.49
2019-03-18T17:06:33.748Z,53.77
2019-03-18T17:07:33.739Z,53.66
2019-03-18T17:08:33.732Z,54.28
2019-03-18T17:09:33.712Z,54.41
2019-03-18T17:10:33.700Z,54.30
2019-03-18T17:11:33.692Z,54.61
2019-03-18T17:12:33.679Z,54.59
2019-03-18T17:13:33.676Z,54.41
2019-03-18T17:14:33.655Z,54.21
2019-03-18T17:15:33.644Z,55.23
2019-03-18T17:16:33.636Z,54.51
2019-03-18T17:17:33.622Z,54.00
2019-03-18T17:18:33.621Z,53.17
2019-03-18T17:19:33.601Z,53.08
2019-03-18T17:20:33.594Z,53.00
2019-03-18T17:21:33.581Z,53.00
2019-03-18T17:22:33.572Z,53.81
2019-03-18T17:23:33.567Z,53.61
2019-03-18T17:24:33.545Z,53.41
2019-03-18T17:25:33.532Z,53.64
2019-03-18T17:26:33.584Z,53.53
2019-03-18T17:27:33.511Z,54.33
2019-03-18T17:28:33.509Z,53.61
2019-03-18T17:29:33.488Z,55.18
2019-03-18T17:30:33.476Z,54.66
2019-03-18T17:31:33.466Z,54.56
2019-03-18T17:32:33.456Z,54.66
2019-03-18T17:33:33.460Z,54.56
2019-03-18T17:34:33.435Z,54.59
2019-03-18T17:35:33.423Z,54.59
2019-03-18T17:36:33.415Z,53.97
2019-03-18T17:37:33.405Z,54.59
2019-03-18T17:38:33.402Z,53.87